This is the latest recevied weather packets stored in our database for station/object F4BBI-13. If no packets are shown the sender has not sent any weather packets the latest 1 day(s).
| Time | Temp. | Humidity | Pressure | Rain* | Wind** | Luminosity | Snow |
|---|---|---|---|---|---|---|---|
| 1778084893 | 21.67° C | 40% | 941 hPa | 0 mm | - | 64 W/m² | - |
| 1778081266 | 22.22° C | 43% | 941 hPa | 0 mm | - | 139 W/m² | - |
| 1778080662 | 22.22° C | 42% | 941 hPa | 0 mm | - | 487 W/m² | - |
| 1778078849 | 22.22° C | 45% | 941 hPa | 0 mm | - | 487 W/m² | - |
| 1778077036 | 23.33° C | 40% | 941 hPa | 0 mm | - | 422 W/m² | - |
| 1778074619 | 19.44° C | 53% | 941 hPa | 0 mm | - | 212 W/m² | - |
| 1778070993 | 14.44° C | 71% | 941 hPa | 0 mm | - | 76 W/m² | - |
| 1778070389 | 15° C | 70% | 942 hPa | 0 mm | - | 57 W/m² | - |
| 1778069180 | 16.11° C | 64% | 941 hPa | 0 mm | - | 47 W/m² | - |
| 1778068576 | 16.67° C | 62% | 941 hPa | 0 mm | - | 105 W/m² | - |
| 1778064950 | 20° C | 51% | 942 hPa | 0 mm | - | 120 W/m² | - |
| 1778064346 | 21.11° C | 50% | 942 hPa | 0 mm | - | 487 W/m² | - |
| 1778063741 | 18.33° C | 51% | 942 hPa | 0 mm | - | 171 W/m² | - |
| 1778062533 | 20° C | 50% | 942 hPa | 0 mm | - | 487 W/m² | - |
| 1778061324 | 18.89° C | 51% | 942 hPa | 0 mm | - | 384 W/m² | - |
| 1778060720 | 20.56° C | 48% | 942 hPa | 0 mm | - | 303 W/m² | - |
| 1778058907 | 20° C | 49% | 942 hPa | 0 mm | - | 292 W/m² | - |
| 1778057698 | 17.78° C | 55% | 942 hPa | 0 mm | - | 323 W/m² | - |
| 1778057094 | 18.89° C | 54% | 942 hPa | 0 mm | - | 312 W/m² | - |
| 1778056490 | 17.78° C | 58% | 942 hPa | 0 mm | - | 87 W/m² | - |
| 1778055281 | 16.67° C | 72% | 941 hPa | 0 mm | - | 329 W/m² | - |
| 1778054677 | 14.44° C | 84% | 941 hPa | 0 mm | - | 388 W/m² | - |
| 1778054073 | 12.22° C | 85% | 941 hPa | 0 mm | - | 114 W/m² | - |
| 1778053468 | 12.22° C | 88% | 942 hPa | 0 mm | - | 177 W/m² | - |
| 1778052864 | 11.67° C | 88% | 942 hPa | 0 mm | - | 102 W/m² | - |
* Rain latest hour (hover to see other rain measurements)
** Current wind speed in m/s (hover to see current wind gust speed)